»·PEaware :: N27JP KSNA-KSBD

N27JP :: KSNA-KSBD

FLIGHT INFORMATION

Flight Status: Arrived
Operator: Privately registered:
United States
More flights under this callsign
Pilot: Weston J. (31543)
Aircraft: CESSNA 172 SKYHAWK
(C172)
More flights by this aircraft type
Origin: KSNA John Wayne-Orange Co
United States
Destination: KSBD San Bernardino Intl
United States
More flights between these airports :: More routes between these airports
Route: SLI V8 PDZ
File this flight plan on PilotEdge
Remarks: TEC route CSTP13
Altitude:
(Current/Filed)
5,000ft
Speed:
(Current/Filed)
110kts
Departed: 07-Dec-20 08:30 PM
Arrived: 07-Dec-20 09:04 PM
Distance/Time
Traveled:
41nm/0:33
Distance/Time
To Go:
Arrived

Flight Plot

Page will automatically refresh every two minutes.


Map Options




Map Legend


Flown Route
Filed Route
Departure Airport
Arrival Airport
Navaid (VOR, NDB)
Fix

Horizontal Profiles

Position Reports

Time Latitude Longitude Heading Altitude Ground
Speed
07-Dec-20 19:58 33.672870 -117.873091 207 60ft 0kts
07-Dec-20 19:59 33.672870 -117.873091 207 60ft 0kts
07-Dec-20 20:00 33.672870 -117.873091 207 60ft 0kts
07-Dec-20 20:01 33.672870 -117.873091 207 60ft 0kts
07-Dec-20 20:02 33.672870 -117.873091 207 60ft 0kts
07-Dec-20 20:03 33.672870 -117.873091 207 60ft 0kts
07-Dec-20 20:04 33.672870 -117.873091 207 60ft 0kts
07-Dec-20 20:05 33.672870 -117.873091 207 60ft 0kts
07-Dec-20 20:06 33.672870 -117.873091 207 60ft 0kts
07-Dec-20 20:07 33.672870 -117.873091 207 60ft 0kts
07-Dec-20 20:08 33.672870 -117.873091 207 60ft 0kts
07-Dec-20 20:09 33.672870 -117.873091 207 60ft 0kts
07-Dec-20 20:10 33.672870 -117.873091 207 60ft 0kts
07-Dec-20 20:11 33.672870 -117.873091 207 60ft 0kts
07-Dec-20 20:13 33.673503 -117.871710 27 60ft 13kts
07-Dec-20 20:13 33.677019 -117.869483 27 60ft 19kts
07-Dec-20 20:14 33.681222 -117.866451 109 60ft 0kts
07-Dec-20 20:15 33.681221 -117.866450 109 60ft 0kts
07-Dec-20 20:16 33.679486 -117.866408 206 60ft 38kts
07-Dec-20 20:20 33.672862 -117.873096 207 60ft 0kts
07-Dec-20 20:21 33.672862 -117.873096 207 60ft 0kts
07-Dec-20 20:22 33.672862 -117.873096 207 60ft 0kts
07-Dec-20 20:23 33.672862 -117.873096 207 60ft 0kts
07-Dec-20 20:24 33.672855 -117.873100 204 60ft 1kts
07-Dec-20 20:25 33.674118 -117.871309 27 60ft 17kts
07-Dec-20 20:26 33.679989 -117.867772 26 60ft 25kts
07-Dec-20 20:27 33.681236 -117.866516 114 60ft 0kts
07-Dec-20 20:28 33.681074 -117.866127 118 60ft 9kts
07-Dec-20 20:29 33.668088 -117.873617 201 282ft 96kts
07-Dec-20 20:30 33.648647 -117.898182 231 1046ft 100kts
07-Dec-20 20:31 33.630107 -117.929226 231 1721ft 117kts
07-Dec-20 20:32 33.620237 -117.964611 309 2426ft 120kts
07-Dec-20 20:33 33.650866 -117.969586 11 3161ft 110kts
07-Dec-20 20:34 33.679740 -117.967900 10 3844ft 93kts
07-Dec-20 20:35 33.704645 -117.967090 30 4528ft 82kts
07-Dec-20 20:36 33.719857 -117.948454 56 4998ft 93kts
07-Dec-20 20:37 33.740018 -117.921959 54 4990ft 111kts
07-Dec-20 20:38 33.759799 -117.897189 54 4989ft 96kts
07-Dec-20 20:39 33.778853 -117.873629 54 4989ft 98kts
07-Dec-20 20:40 33.798425 -117.849575 54 4988ft 99kts
07-Dec-20 20:41 33.817455 -117.824639 72 4879ft 97kts
07-Dec-20 20:42 33.827744 -117.794816 74 4869ft 96kts
07-Dec-20 20:43 33.837907 -117.764999 74 4863ft 96kts
07-Dec-20 20:44 33.848220 -117.734920 75 4858ft 97kts
07-Dec-20 20:45 33.858630 -117.704822 75 4852ft 97kts
07-Dec-20 20:46 33.869035 -117.674378 75 4847ft 98kts
07-Dec-20 20:47 33.879429 -117.643866 76 4842ft 99kts
07-Dec-20 20:48 33.889948 -117.612952 76 4837ft 99kts
07-Dec-20 20:49 33.901637 -117.578386 75 4528ft 109kts
07-Dec-20 20:50 33.913752 -117.542663 74 4096ft 108kts
07-Dec-20 20:51 33.940056 -117.521720 30 3831ft 109kts
07-Dec-20 20:52 33.968278 -117.510234 28 3846ft 106kts
07-Dec-20 20:53 33.995536 -117.499563 29 3952ft 102kts
07-Dec-20 20:54 34.019580 -117.482291 67 3906ft 106kts
07-Dec-20 20:55 34.031833 -117.447830 73 3512ft 115kts
07-Dec-20 20:56 34.041975 -117.414931 76 3281ft 96kts
07-Dec-20 20:57 34.051030 -117.384590 76 3287ft 97kts
07-Dec-20 20:58 34.060366 -117.352882 76 2880ft 94kts
07-Dec-20 20:59 34.069044 -117.323721 75 2415ft 85kts
07-Dec-20 21:00 34.077047 -117.296733 74 1925ft 83kts
07-Dec-20 21:01 34.084222 -117.272150 74 1500ft 68kts
07-Dec-20 21:02 34.090918 -117.249651 72 1132ft 64kts
07-Dec-20 21:03 34.094465 -117.240839 30 1106ft 0kts
07-Dec-20 21:05 34.095485 -117.239923 42 1108ft 12kts
07-Dec-20 21:06 34.097018 -117.235382 69 1120ft 15kts
07-Dec-20 21:07 34.098515 -117.230217 70 1133ft 16kts
07-Dec-20 21:08 34.100509 -117.227205 24 1142ft 0kts

Navigation Log

Ident Type
Flight plan parsing failed, navigation log unavailable